• Join FlightAware (Why Join?)
  • Login
  • US Flag 
12:26AM EDT


 

Airport Tracker/Info


-or-


 

Live Flight TrackerFlight Track Log ✈ UPS238 ✈ 10-Jul-2013 ✈ EGSS / STN - KSDF

Flight Track Log - Related Links

Times and Time Zones

All times are in EDT time to prevent confusion due to time zone crossing. See the UPS238 flight status page for this flight to view local times or setup timezone preferences in your user account.

Time Position Orientation Groundspeed Altitude Reporting Facility
EDT Latitude Longitude Course Direction KTS MPH feet Rate Location/Type
11:55PM 39.1833 -84.4000 226° Southwest 380 437 24,100  Level Cincinnati TRACON
12:00AM 38.7910 -84.9210 217° Southwest 369 425 14,600 -1,740 Descending FlightAware
12:01AM 38.7470 -84.9640 217° Southwest 369 425 13,700 -1,440 Descending FlightAware
12:02AM 38.6760 -85.0320 217° Southwest 343 395 12,600 -840 Descending FlightAware
12:03AM 38.6060 -85.0990 217° Southwest 343 395 12,100 -300 Descending FlightAware
12:04AM 38.5220 -85.1800 217° Southwest 339 390 12,000 -480 Descending FlightAware
12:05AM 38.4730 -85.2270 217° Southwest 332 382 11,400 -840 Descending FlightAware
12:05AM 38.4240 -85.2730 216° Southwest 312 359 10,900 -840 Descending FlightAware
12:06AM 38.3840 -85.3110 217° Southwest 297 342 10,400 -1,140 Descending FlightAware
12:06AM 38.3540 -85.3400 217° Southwest 295 339 9,800 -1,200 Descending FlightAware
12:07AM 38.3250 -85.3680 217° Southwest 292 336 9,300 -960 Descending FlightAware
12:07AM 38.3070 -85.3850 217° Southwest 285 328 9,100 -540 Descending FlightAware
12:08AM 38.2750 -85.4150 216° Southwest 270 311 8,900 -540 Descending FlightAware
12:08AM 38.2690 -85.4210 218° Southwest 266 306 8,800 -600 Descending FlightAware
12:08AM 38.2470 -85.4420 217° Southwest 253 291 8,600 -720 Descending FlightAware
12:09AM 38.2210 -85.4670 217° Southwest 244 281 8,200 -1,020 Descending FlightAware
12:09AM 38.1950 -85.4910 216° Southwest 242 278 7,700 -1,200 Descending FlightAware
12:09AM 38.1820 -85.5030 216° Southwest 242 278 7,400 -1,380 Descending FlightAware
12:10AM 38.1580 -85.5260 217° Southwest 246 283 6,800 -1,140 Descending FlightAware
12:10AM 38.1300 -85.5520 216° Southwest 236 272 6,300 -960 Descending FlightAware
12:10AM 38.1190 -85.5620 216° Southwest 232 267 6,100 -900 Descending FlightAware
12:11AM 38.0870 -85.5810 205° Southwest 230 265 5,500 -1,080 Descending FlightAware
12:12AM 38.0510 -85.5740 171° South 229 264 4,900 -1,200 Descending FlightAware
12:12AM 38.0200 -85.5680 171° South 225 259 4,400 -960 Descending FlightAware
12:12AM 37.9900 -85.5620 171° South 223 257 4,000 -480 Descending FlightAware
12:13AM 37.9670 -85.5570 170° South 226 260 4,000  Level FlightAware
12:13AM 37.9400 -85.5510 170° South 228 262 4,000  Level FlightAware
12:14AM 37.9280 -85.5470 165° South 227 261 4,000  Level FlightAware
12:14AM 37.9110 -85.5410 164° South 227 261 4,000 -180 Level FlightAware
12:14AM 37.8820 -85.5320 166° South 227 261 3,900 -360 Descending FlightAware
12:14AM 37.8740 -85.5290 164° South 226 260 3,800 -360 Descending FlightAware
12:17AM 37.8510 -85.6150 251° West 201 231 3,000 -240 Descending FlightAware
12:18AM 37.8810 -85.6290 340° North 201 231 3,000  Level FlightAware
12:18AM 37.9120 -85.6390 346° North 202 232 3,000  Level FlightAware
12:19AM 37.9410 -85.6480 346° North 204 235 3,000  Level FlightAware
12:19AM 37.9630 -85.6550 346° North 205 236 3,000  Level FlightAware
12:20AM 37.9910 -85.6640 346° North 204 235 3,000  Level FlightAware
12:20AM 38.0010 -85.6680 343° North 201 231 3,000  Level FlightAware
12:20AM 38.0240 -85.6760 345° North 181 208 3,000  Level FlightAware
12:21AM 38.0460 -85.6830 346° North 157 181 3,000 -240 Level FlightAware
12:21AM 38.0620 -85.6890 344° North 149 171 2,800 -960 Descending FlightAware
12:22AM 38.0800 -85.6950 345° North 143 165 2,200 -1,080 Descending FlightAware
12:22AM 38.0980 -85.7010 345° North 143 165 1,800 -840 Descending FlightAware
12:22AM 38.1080 -85.7040 347° North 143 165 1,600 -780 Descending FlightAware
12:23AM 38.1240 -85.7100 344° North 146 168 1,300 -780 Descending FlightAware
12:23AM 38.1340 -85.7130 347° North 147 169 1,100 -840 Descending FlightAware
12:23AM 38.1540 -85.7200 345° North 150 173 700 -720 Descending FlightAware
12:24AM 38.1630 -85.7230 345° North 151 174 600 -540 Descending FlightAware
12:24AM 38.1830 -85.7300 345° North 34 39 -840 Descending FlightAware
12:25AM 38.1830 -85.7310 270° West 22 25  Level FlightAware
12:25AM 38.1830 -85.7330 270° West 29 33  Level FlightAware
12:26AM 38.1800 -85.7340 195° South 31 36  Level FlightAware
12:27AM 38.1780 -85.7360 218° Southwest 16 18  Level FlightAware
12:28AM 38.1790 -85.7400 288° West 21 24  Level FlightAware
12:28AM 38.1800 -85.7420 302° West 19 22  Level FlightAware